Time;durP1;ratioP1;P1;durP2;ratioP2;P2;SDS_P1;SDS_P2;PMS_P1;PMS_P2;Temp;Humidity;BMP_temperature;BMP_pressure;BME280_temperature;BME280_humidity;BME280_pressure;Samples;Min_cycle;Max_cycle;Signal;HPM_P1;HPM_P2
2022/05/29 00:00:54;;;;;;;3.63;1.25;;;;;;;27.52;27.45;96336.56;5098596;27;20058;-31
2022/05/29 00:03:20;;;;;;;2.60;1.25;;;;;;;27.51;27.37;96338.34;5102326;27;20090;-31
2022/05/29 00:05:46;;;;;;;3.13;1.10;;;;;;;27.51;27.67;96335.72;5104754;27;20058;-33
2022/05/29 00:08:28;;;;;;;2.72;1.45;;;;;;;27.51;27.55;96340.97;5094503;27;20059;-31
2022/05/29 00:10:53;;;;;;;2.72;1.30;;;;;;;27.52;27.84;96336.56;5085878;28;20051;-38
2022/05/29 00:13:19;;;;;;;2.50;1.25;;;;;;;27.51;27.53;96330.47;5093846;27;20091;-31
2022/05/29 00:15:44;;;;;;;2.42;1.38;;;;;;;27.50;27.47;96334.03;5075005;28;20070;-30
2022/05/29 00:18:10;;;;;;;1.85;1.20;;;;;;;27.51;27.66;96332.28;5089429;27;20027;-35
2022/05/29 00:20:36;;;;;;;2.22;1.20;;;;;;;27.52;27.52;96326.06;5090505;27;21003;-30
2022/05/29 00:23:01;;;;;;;1.40;1.20;;;;;;;27.51;27.43;96319.09;5095439;27;20036;-32
2022/05/29 00:25:27;;;;;;;1.92;1.30;;;;;;;27.51;27.48;96319.94;5100623;27;20358;-31
2022/05/29 00:27:52;;;;;;;2.05;1.65;;;;;;;27.52;27.68;96320.78;5105637;27;20020;-31
2022/05/29 00:30:18;;;;;;;1.80;1.45;;;;;;;27.52;27.56;96315.53;5100846;27;20039;-31
2022/05/29 00:32:43;;;;;;;2.47;1.05;;;;;;;27.51;27.30;96317.31;5101724;27;20084;-30
2022/05/29 00:35:09;;;;;;;1.85;1.13;;;;;;;27.52;27.84;96312.91;5105958;27;20027;-31
2022/05/29 00:37:35;;;;;;;2.63;0.88;;;;;;;27.52;27.63;96315.53;5102562;27;20032;-30
2022/05/29 00:40:01;;;;;;;2.35;1.40;;;;;;;27.52;27.42;96315.53;5083072;28;20059;-33
2022/05/29 00:42:26;;;;;;;1.55;1.08;;;;;;;27.51;27.64;96314.66;5103895;27;20024;-31
2022/05/29 00:44:52;;;;;;;3.75;1.00;;;;;;;27.52;27.48;96315.53;5101100;27;20036;-31
2022/05/29 00:47:20;;;;;;;1.33;1.02;;;;;;;27.52;27.78;96312.91;5101018;27;20393;-31
2022/05/29 00:49:47;;;;;;;1.63;1.20;;;;;;;27.51;27.63;96313.84;5102524;27;20031;-35
2022/05/29 00:52:18;;;;;;;1.83;1.08;;;;;;;27.52;27.60;96310.25;5104805;27;20057;-33
2022/05/29 00:55:25;;;;;;;1.90;1.25;;;;;;;27.51;27.84;96305.94;5104741;27;20023;-31
2022/05/29 00:57:58;;;;;;;2.40;1.30;;;;;;;27.51;27.78;96304.16;5082342;27;20058;-33
2022/05/29 01:00:26;;;;;;;1.80;1.10;;;;;;;27.52;27.79;96299.72;5083245;27;20042;-33
2022/05/29 01:02:56;;;;;;;2.08;1.13;;;;;;;27.52;27.67;96294.47;5100265;27;20024;-34
2022/05/29 01:05:22;;;;;;;1.85;1.20;;;;;;;27.52;27.73;96294.47;5103125;27;20096;-32
2022/05/29 01:07:50;;;;;;;2.30;1.15;;;;;;;27.51;27.76;96293.63;5101700;27;20036;-31
2022/05/29 01:10:16;;;;;;;2.83;1.10;;;;;;;27.53;27.74;96288.25;5101155;27;20034;-30
2022/05/29 01:12:47;;;;;;;1.63;1.00;;;;;;;27.52;27.86;96289.22;5070092;27;20028;-31
2022/05/29 01:15:22;;;;;;;2.30;1.08;;;;;;;27.51;27.71;96287.53;5091100;27;20254;-32
2022/05/29 01:17:47;;;;;;;1.70;1.00;;;;;;;27.51;27.78;96282.28;5074837;28;20115;-32
2022/05/29 01:20:27;;;;;;;3.42;1.27;;;;;;;27.52;27.85;96283.94;5096133;27;20035;-31
2022/05/29 01:23:30;;;;;;;1.70;0.98;;;;;;;27.51;27.78;96283.09;5084308;28;20023;-32
2022/05/29 01:26:33;;;;;;;1.50;1.02;;;;;;;27.51;27.77;96280.47;5104517;27;20667;-32
2022/05/29 01:29:03;;;;;;;2.10;1.20;;;;;;;27.51;27.87;96277.00;5103437;27;20031;-32
2022/05/29 01:31:34;;;;;;;3.10;1.20;;;;;;;27.51;28.23;96277.00;5101450;27;20024;-30
2022/05/29 01:34:20;;;;;;;2.00;1.10;;;;;;;27.52;27.91;96273.41;5085363;28;20043;-30
2022/05/29 01:36:51;;;;;;;1.95;0.93;;;;;;;27.50;27.87;96268.25;5101674;27;20027;-30
2022/05/29 01:39:33;;;;;;;1.65;1.23;;;;;;;27.50;27.81;96264.81;5100828;27;20035;-32
2022/05/29 01:42:22;;;;;;;3.30;0.90;;;;;;;27.50;27.92;96259.53;5058071;28;20270;-33
2022/05/29 01:44:55;;;;;;;4.20;0.90;;;;;;;27.50;27.97;96259.53;5076428;27;20062;-30
2022/05/29 01:47:25;;;;;;;2.15;1.20;;;;;;;27.51;27.97;96258.59;5091144;27;20161;-31
2022/05/29 01:50:02;;;;;;;4.15;1.08;;;;;;;27.49;27.71;96258.69;5084846;28;20076;-30
2022/05/29 01:52:33;;;;;;;2.33;1.20;;;;;;;27.50;27.82;96251.66;5073938;27;20027;-31
2022/05/29 01:55:06;;;;;;;3.40;1.23;;;;;;;27.50;27.83;96251.66;5084495;28;20032;-33
2022/05/29 01:57:35;;;;;;;1.95;1.10;;;;;;;27.50;27.97;96249.00;5087626;27;20497;-31
2022/05/29 02:00:18;;;;;;;2.53;0.90;;;;;;;27.50;27.80;96246.38;5100684;27;20039;-33
2022/05/29 02:03:05;;;;;;;1.45;1.00;;;;;;;27.50;28.10;96243.75;5088995;28;20035;-31
2022/05/29 02:05:34;;;;;;;4.30;1.00;;;;;;;27.50;28.01;96239.31;5079956;27;20039;-31
2022/05/29 02:08:17;;;;;;;1.38;0.80;;;;;;;27.50;28.11;96241.94;5089730;28;20055;-31
2022/05/29 02:10:51;;;;;;;1.23;0.98;;;;;;;27.51;27.86;96232.25;5104339;27;20031;-29
2022/05/29 02:13:21;;;;;;;2.95;1.08;;;;;;;27.51;27.80;96229.63;5086613;27;20054;-30
2022/05/29 02:16:01;;;;;;;4.53;0.95;;;;;;;27.50;27.89;96222.69;5085230;28;20095;-30
2022/05/29 02:18:43;;;;;;;1.35;0.88;;;;;;;27.50;28.11;96223.53;5101696;27;20027;-30
2022/05/29 02:21:10;;;;;;;;;;;;;;;27.51;27.89;96225.19;5071690;27;20036;-30
2022/05/29 02:23:38;;;;;;;0.93;0.85;;;;;;;27.51;27.91;96219.09;5106028;27;20147;-30
2022/05/29 02:26:04;;;;;;;1.23;0.75;;;;;;;27.49;28.18;96208.69;5083391;27;20035;-32
2022/05/29 02:28:35;;;;;;;1.75;0.70;;;;;;;27.49;27.87;96210.47;5071668;27;20625;-33
2022/05/29 02:31:12;;;;;;;2.38;1.25;;;;;;;27.50;28.08;96209.53;5069137;28;20153;-31
2022/05/29 02:34:15;;;;;;;1.55;0.77;;;;;;;27.50;28.18;96212.16;5103667;27;20826;-36
2022/05/29 02:36:46;;;;;;;1.48;0.90;;;;;;;27.49;28.10;96213.09;5103247;27;20031;-32
2022/05/29 02:39:23;;;;;;;1.85;1.15;;;;;;;27.50;28.29;96212.16;5105796;27;20031;-30
2022/05/29 02:41:57;;;;;;;1.88;0.80;;;;;;;27.49;28.11;96205.19;5084269;28;20027;-31
2022/05/29 02:44:47;;;;;;;1.23;0.90;;;;;;;27.50;28.08;96212.16;5076146;27;20035;-31
2022/05/29 02:47:31;;;;;;;0.73;0.70;;;;;;;27.49;27.96;96206.06;5096696;27;20032;-30
2022/05/29 02:50:02;;;;;;;1.00;0.70;;;;;;;27.49;27.92;96205.19;5103244;27;20035;-32
2022/05/29 02:52:28;;;;;;;2.08;0.60;;;;;;;27.49;27.98;96205.19;5087830;27;20937;-30
2022/05/29 02:54:55;;;;;;;1.40;0.85;;;;;;;27.48;27.78;96203.53;5069446;28;20035;-30
2022/05/29 02:57:20;;;;;;;1.65;0.80;;;;;;;27.48;28.04;96198.25;5102164;27;20019;-30
2022/05/29 02:59:48;;;;;;;2.92;0.77;;;;;;;27.49;28.03;96199.94;5100989;27;20042;-33
2022/05/29 03:02:29;;;;;;;3.53;0.73;;;;;;;27.49;27.93;96197.31;5080016;27;20118;-32
2022/05/29 03:05:16;;;;;;;2.08;0.80;;;;;;;27.49;27.99;96200.78;5099279;27;20031;-32
2022/05/29 03:08:05;;;;;;;1.30;0.70;;;;;;;27.48;28.00;96193.00;5087573;27;20019;-30
2022/05/29 03:10:35;;;;;;;0.93;0.63;;;;;;;27.48;28.13;96193.00;5054952;27;20042;-31
2022/05/29 03:13:22;;;;;;;2.08;0.93;;;;;;;27.48;28.08;96193.00;5061714;27;20043;-33
2022/05/29 03:15:57;;;;;;;1.73;1.00;;;;;;;27.48;28.04;96188.59;5099592;27;21426;-31
2022/05/29 03:18:35;;;;;;;1.20;1.00;;;;;;;27.49;28.05;96194.66;5080021;27;20084;-35
2022/05/29 03:21:22;;;;;;;0.85;0.75;;;;;;;27.48;28.19;96179.84;5099256;27;20073;-30
2022/05/29 03:24:02;;;;;;;1.35;0.88;;;;;;;27.48;28.15;96185.09;5098268;27;20038;-28
2022/05/29 03:26:51;;;;;;;1.13;0.63;;;;;;;27.47;28.17;96176.38;5096368;27;20035;-31
2022/05/29 03:29:38;;;;;;;1.13;0.90;;;;;;;27.47;28.21;96189.53;5084135;27;20016;-31
2022/05/29 03:32:04;;;;;;;1.90;0.80;;;;;;;27.48;28.22;96193.00;5066921;27;20172;-31
2022/05/29 03:34:29;;;;;;;1.90;0.80;;;;;;;27.48;28.11;96185.97;5078123;27;20027;-32
2022/05/29 03:36:54;;;;;;;1.17;0.77;;;;;;;27.46;28.37;96179.94;5098660;27;20065;-31
2022/05/29 03:39:20;;;;;;;0.60;0.60;;;;;;;27.47;28.34;96178.16;5098471;27;20064;-31
2022/05/29 03:41:47;;;;;;;0.60;0.60;;;;;;;27.47;28.15;96171.13;5096741;27;20019;-31
2022/05/29 03:44:14;;;;;;;1.17;0.70;;;;;;;27.47;28.41;96172.91;5061138;27;20026;-32
2022/05/29 03:46:40;;;;;;;1.30;0.85;;;;;;;27.48;28.51;96166.69;5090511;27;20059;-31
2022/05/29 03:49:08;;;;;;;0.90;0.70;;;;;;;27.47;28.16;96176.38;5097037;27;20133;-30
2022/05/29 03:51:34;;;;;;;1.42;0.73;;;;;;;27.48;28.13;96171.94;5099168;27;20038;-31
2022/05/29 03:54:00;;;;;;;2.80;0.60;;;;;;;27.48;28.05;96169.31;5095048;27;20108;-33
2022/05/29 03:56:25;;;;;;;1.45;0.77;;;;;;;27.48;28.26;96171.94;5100056;27;20928;-30
2022/05/29 03:58:51;;;;;;;1.05;0.65;;;;;;;27.47;28.04;96171.13;5095587;27;20035;-34
2022/05/29 04:01:16;;;;;;;1.10;0.80;;;;;;;27.48;28.16;96177.22;5100168;27;20504;-31
2022/05/29 04:03:41;;;;;;;1.02;0.80;;;;;;;27.48;28.19;96171.94;5094623;27;20027;-30
2022/05/29 04:06:07;;;;;;;1.85;1.00;;;;;;;27.48;28.25;96174.56;5092369;27;20113;-32
2022/05/29 04:14:01;;;;;;;1.30;0.70;;;;;;;27.48;28.25;96177.22;5060657;28;20037;-32
2022/05/29 04:16:26;;;;;;;0.75;0.70;;;;;;;27.49;28.13;96178.88;5093045;27;20432;-31
2022/05/29 04:18:52;;;;;;;1.73;0.77;;;;;;;27.48;28.24;96183.31;5073106;28;20031;-31
2022/05/29 04:21:17;;;;;;;0.70;0.63;;;;;;;27.48;28.22;96182.47;5092221;27;20034;-31
2022/05/29 04:23:42;;;;;;;0.93;0.60;;;;;;;27.49;28.22;96181.50;5093729;27;20030;-32
2022/05/29 04:26:08;;;;;;;2.35;0.65;;;;;;;27.48;28.42;96177.22;5095524;27;20428;-32
2022/05/29 04:28:33;;;;;;;1.23;0.70;;;;;;;27.48;28.13;96185.09;5097641;27;20035;-30
2022/05/29 04:30:59;;;;;;;1.08;0.70;;;;;;;27.48;28.20;96182.47;5093349;27;20132;-32
2022/05/29 04:33:25;;;;;;;0.82;0.60;;;;;;;27.47;28.29;96175.53;5096831;27;21865;-31
2022/05/29 04:35:51;;;;;;;1.02;0.65;;;;;;;27.47;28.33;96176.38;5097735;27;20103;-33
2022/05/29 04:38:16;;;;;;;1.58;0.80;;;;;;;27.48;28.32;96174.56;5099818;27;20023;-31
2022/05/29 04:40:43;;;;;;;5.57;0.70;;;;;;;27.48;28.33;96177.22;5099428;27;20083;-33
2022/05/29 04:43:09;;;;;;;6.30;0.90;;;;;;;27.48;28.31;96171.94;5096449;27;20143;-31
2022/05/29 04:45:34;;;;;;;1.88;0.80;;;;;;;27.48;28.16;96171.94;5098542;27;20031;-32
2022/05/29 04:48:00;;;;;;;0.60;0.60;;;;;;;27.47;28.17;96165.00;5094142;27;20552;-32
2022/05/29 04:50:25;;;;;;;1.10;0.80;;;;;;;27.48;28.29;96161.41;5091056;27;20030;-31
2022/05/29 04:52:50;;;;;;;1.52;0.70;;;;;;;27.47;28.06;96159.75;5094692;27;20489;-34
2022/05/29 04:55:17;;;;;;;1.13;0.70;;;;;;;27.48;28.34;96158.78;5092361;27;20031;-35
2022/05/29 04:57:42;;;;;;;1.92;0.70;;;;;;;27.48;28.29;96156.16;5097859;27;20099;-32
2022/05/29 05:00:08;;;;;;;0.95;0.75;;;;;;;27.47;28.02;96155.34;5095548;27;20031;-35
2022/05/29 05:02:33;;;;;;;1.90;0.88;;;;;;;27.48;28.03;96156.16;5094398;27;20962;-32
2022/05/29 05:04:59;;;;;;;1.10;0.60;;;;;;;27.48;28.32;96156.16;5092144;27;20034;-33
2022/05/29 05:07:24;;;;;;;3.00;0.93;;;;;;;27.47;28.54;96157.13;5091891;27;20627;-31
2022/05/29 05:09:50;;;;;;;0.88;0.50;;;;;;;27.47;28.30;96155.34;5091813;27;20054;-37
2022/05/29 05:12:15;;;;;;;2.97;0.70;;;;;;;27.48;28.44;96156.16;5099356;27;20027;-36
2022/05/29 05:14:40;;;;;;;0.77;0.50;;;;;;;27.47;28.14;96160.59;5095011;27;20148;-31
2022/05/29 05:17:06;;;;;;;0.60;0.47;;;;;;;27.48;28.35;96158.78;5093826;27;20034;-33
2022/05/29 05:19:31;;;;;;;1.73;0.70;;;;;;;27.47;28.32;96157.97;5095125;27;20027;-34
2022/05/29 05:22:00;;;;;;;0.57;0.57;;;;;;;27.46;28.33;96158.88;5093973;27;20031;-31
2022/05/29 05:24:26;;;;;;;1.02;0.52;;;;;;;27.47;28.24;96159.75;5090551;27;20080;-29
2022/05/29 05:26:51;;;;;;;2.70;0.60;;;;;;;27.47;28.31;96163.22;5095353;27;20043;-31
2022/05/29 05:29:17;;;;;;;1.80;0.73;;;;;;;27.47;28.43;96150.06;5094511;27;20543;-32
2022/05/29 05:31:42;;;;;;;0.70;0.60;;;;;;;27.47;28.25;96159.75;5096641;27;20038;-32
2022/05/29 05:34:08;;;;;;;0.90;0.60;;;;;;;27.48;28.29;96166.69;5099465;27;20055;-31
2022/05/29 05:36:33;;;;;;;4.15;1.25;;;;;;;27.47;28.35;96165.84;5093250;27;20885;-29
2022/05/29 05:38:58;;;;;;;2.28;0.88;;;;;;;27.47;28.48;96172.91;5093119;27;20055;-32
2022/05/29 05:41:24;;;;;;;1.83;0.60;;;;;;;27.47;27.93;96165.00;5095191;27;20774;-31
2022/05/29 05:43:49;;;;;;;4.25;1.00;;;;;;;27.47;28.27;96165.84;5075546;28;20081;-29
2022/05/29 05:46:15;;;;;;;2.50;1.17;;;;;;;27.46;28.42;96169.41;5098630;27;20028;-32
2022/05/29 05:48:41;;;;;;;2.80;0.90;;;;;;;27.46;28.37;96168.59;5092646;27;20428;-30
2022/05/29 05:51:07;;;;;;;0.90;0.45;;;;;;;27.46;28.46;96164.16;5095370;27;20141;-31
2022/05/29 05:53:32;;;;;;;3.35;1.02;;;;;;;27.46;28.31;96164.16;5094849;27;20020;-33
2022/05/29 05:55:58;;;;;;;1.10;0.60;;;;;;;27.46;28.27;96163.31;5096275;27;21377;-30
2022/05/29 05:58:23;;;;;;;0.95;0.80;;;;;;;27.46;28.28;96166.78;5094499;27;20096;-31
2022/05/29 06:00:49;;;;;;;2.88;0.95;;;;;;;27.47;28.52;96165.00;5093192;27;20043;-32
2022/05/29 06:03:14;;;;;;;1.38;0.90;;;;;;;27.47;28.46;96165.00;5092779;27;20819;-30
2022/05/29 06:05:40;;;;;;;1.98;0.75;;;;;;;27.46;28.48;96164.16;5094779;27;20020;-31
2022/05/29 06:08:05;;;;;;;2.60;0.80;;;;;;;27.47;28.53;96170.28;5096298;27;20038;-30
2022/05/29 06:10:31;;;;;;;3.33;0.90;;;;;;;27.47;28.35;96165.00;5089529;27;20039;-31
2022/05/29 06:13:03;;;;;;;8.23;1.85;;;;;;;27.46;28.65;96173.84;5091038;27;20034;-30
2022/05/29 06:15:29;;;;;;;5.80;2.08;;;;;;;27.47;28.38;96170.28;5091667;27;20034;-34
2022/05/29 06:17:54;;;;;;;9.45;2.15;;;;;;;27.47;28.35;96180.78;5094812;27;20249;-31
2022/05/29 06:20:20;;;;;;;8.90;2.47;;;;;;;27.48;28.41;96179.84;5101326;27;20622;-30
2022/05/29 06:22:45;;;;;;;8.80;2.25;;;;;;;27.48;28.47;96179.84;5087079;27;20516;-34
2022/05/29 06:25:10;;;;;;;4.90;2.08;;;;;;;27.47;28.51;96186.91;5092671;27;20619;-32
2022/05/29 06:27:40;;;;;;;7.88;2.33;;;;;;;27.47;28.70;96175.53;5082774;27;20111;-35
2022/05/29 06:30:07;;;;;;;8.35;2.38;;;;;;;27.47;28.37;96181.66;5092031;27;20028;-29
2022/05/29 06:32:33;;;;;;;9.30;2.72;;;;;;;27.47;28.69;96178.16;5102641;27;20074;-31
2022/05/29 06:34:59;;;;;;;8.60;2.92;;;;;;;27.48;28.41;96185.09;5109447;27;20686;-31
2022/05/29 06:37:24;;;;;;;7.60;2.65;;;;;;;27.49;28.49;96185.00;5111522;27;20026;-29
2022/05/29 06:39:50;;;;;;;9.70;3.00;;;;;;;27.49;28.42;96185.00;5111851;27;20022;-32
2022/05/29 06:42:15;;;;;;;10.15;3.25;;;;;;;27.48;28.31;96177.22;5111408;27;20567;-28
2022/05/29 06:44:41;;;;;;;11.25;3.88;;;;;;;27.49;28.35;96181.50;5118360;27;20046;-32
2022/05/29 06:47:07;;;;;;;10.68;3.47;;;;;;;27.49;28.23;96184.16;5122308;27;20039;-31
2022/05/29 06:49:33;;;;;;;15.07;3.58;;;;;;;27.49;28.48;96184.16;5112428;27;20758;-30
2022/05/29 06:51:59;;;;;;;6.35;3.10;;;;;;;27.50;28.50;96177.97;5112087;27;20035;-31
2022/05/29 06:54:24;;;;;;;10.93;4.03;;;;;;;27.50;28.53;96180.59;5112835;27;20409;-32
2022/05/29 06:56:50;;;;;;;11.13;3.78;;;;;;;27.50;28.66;96181.41;5112194;27;20928;-31
2022/05/29 06:59:15;;;;;;;9.82;3.35;;;;;;;27.51;28.46;96185.72;5110756;27;20035;-37
2022/05/29 07:07:12;;;;;;;8.25;3.38;;;;;;;27.55;28.52;96186.38;5108290;27;20151;-32
2022/05/29 07:09:39;;;;;;;9.60;3.40;;;;;;;27.56;28.42;96188.03;5112646;27;20031;-30
2022/05/29 07:12:13;;;;;;;8.23;3.10;;;;;;;27.58;28.47;96188.75;5116235;27;20039;-30
2022/05/29 07:14:42;;;;;;;9.75;3.58;;;;;;;27.58;28.36;96187.94;5111547;27;20935;-32
2022/05/29 07:17:07;;;;;;;9.18;3.58;;;;;;;27.60;28.39;96199.19;5076454;27;20020;-32
2022/05/29 07:19:34;;;;;;;8.25;3.00;;;;;;;27.61;28.43;96198.28;5111924;27;20042;-34
2022/05/29 07:21:59;;;;;;;8.15;3.03;;;;;;;27.61;28.37;96193.03;5116192;27;20026;-32
2022/05/29 07:24:26;;;;;;;10.60;3.20;;;;;;;27.64;28.20;96203.31;5112001;27;20038;-32
2022/05/29 07:26:53;;;;;;;7.20;3.35;;;;;;;27.64;28.20;96203.31;5117434;27;20458;-34
2022/05/29 07:29:19;;;;;;;7.40;3.08;;;;;;;27.65;28.40;96203.22;5114732;27;20023;-32
2022/05/29 07:31:47;;;;;;;7.55;2.65;;;;;;;27.68;28.17;96198.69;5117321;27;20037;-32
2022/05/29 07:34:12;;;;;;;6.72;2.33;;;;;;;27.68;28.13;96204.78;5124956;27;20113;-32
2022/05/29 07:36:38;;;;;;;8.52;2.83;;;;;;;27.69;28.18;96208.28;5129444;27;20547;-32
2022/05/29 07:39:04;;;;;;;6.93;2.80;;;;;;;27.69;28.19;96206.47;5120843;27;20030;-33
2022/05/29 07:44:13;;;;;;;8.63;2.72;;;;;;;27.69;28.14;96216.16;5121577;27;20038;-29
2022/05/29 07:46:38;;;;;;;7.05;2.65;;;;;;;27.70;28.10;96218.69;5121819;27;20034;-35
2022/05/29 07:49:04;;;;;;;6.25;2.38;;;;;;;27.70;28.01;96217.84;5122522;27;20015;-35
2022/05/29 07:51:29;;;;;;;7.35;2.53;;;;;;;27.69;27.91;96221.44;5120788;27;20514;-33
2022/05/29 07:53:57;;;;;;;4.97;2.20;;;;;;;27.69;28.01;96216.16;5120992;27;20015;-36
2022/05/29 07:56:22;;;;;;;5.40;2.35;;;;;;;27.71;28.22;96224.78;5126649;27;20031;-32
2022/05/29 07:58:47;;;;;;;4.90;2.08;;;;;;;27.71;28.10;96224.78;5096864;27;20161;-33
2022/05/29 08:01:13;;;;;;;6.35;2.33;;;;;;;27.72;28.26;96231.75;5110824;27;20027;-32
2022/05/29 08:03:39;;;;;;;7.10;2.50;;;;;;;27.70;27.99;96228.38;5112358;27;20037;-34
2022/05/29 08:06:04;;;;;;;5.60;2.30;;;;;;;27.70;28.13;96233.63;5115387;27;20031;-33
2022/05/29 08:08:31;;;;;;;7.55;2.28;;;;;;;27.70;28.20;96234.50;5121440;27;20029;-30
2022/05/29 08:10:57;;;;;;;3.83;1.58;;;;;;;27.71;28.19;96237.94;5118661;27;20027;-32
2022/05/29 08:13:22;;;;;;;5.28;2.03;;;;;;;27.70;27.88;96233.63;5119526;27;20709;-37
2022/05/29 08:15:48;;;;;;;5.93;2.30;;;;;;;27.69;27.66;96234.59;5117817;27;20027;-34
2022/05/29 08:18:14;;;;;;;11.98;2.55;;;;;;;27.68;27.49;96235.56;5120313;27;20110;-32
2022/05/29 08:20:39;;;;;;;6.35;1.98;;;;;;;27.67;27.61;96239.13;5108828;27;20042;-32
2022/05/29 08:23:05;;;;;;;12.27;2.25;;;;;;;27.67;27.70;96239.13;5114131;27;20023;-33
2022/05/29 08:30:58;;;;;;;5.10;1.85;;;;;;;27.65;27.57;96247.16;5118205;27;20037;-33
2022/05/29 08:33:24;;;;;;;4.55;1.77;;;;;;;27.64;27.68;96246.28;5116222;27;20015;-31
2022/05/29 08:36:06;;;;;;;8.02;2.83;;;;;;;27.63;27.64;96244.63;5116305;27;21297;-31
2022/05/29 08:38:32;;;;;;;7.45;3.53;;;;;;;27.63;27.64;96244.63;5107561;27;20027;-34
2022/05/29 08:41:02;;;;;;;9.05;2.75;;;;;;;27.62;27.73;96245.53;5089458;27;20065;-35
2022/05/29 08:43:35;;;;;;;6.88;2.78;;;;;;;27.63;27.66;96244.63;5096142;27;20137;-32
2022/05/29 08:46:04;;;;;;;8.27;2.25;;;;;;;27.63;27.74;96246.38;5111685;27;20053;-34
2022/05/29 08:48:30;;;;;;;7.30;2.72;;;;;;;27.62;27.41;96248.16;5092942;27;20031;-36
2022/05/29 08:51:20;;;;;;;8.50;2.20;;;;;;;27.62;27.57;96248.16;5107068;27;20038;-33
2022/05/29 08:53:48;;;;;;;6.65;2.58;;;;;;;27.62;27.63;96248.16;5105809;27;20031;-31
2022/05/29 08:56:32;;;;;;;8.63;2.63;;;;;;;27.63;27.50;96249.03;5106976;27;20931;-32
2022/05/29 08:59:20;;;;;;;7.13;2.00;;;;;;;27.61;27.59;96246.50;5070087;27;20738;-34
2022/05/29 09:01:59;;;;;;;6.97;2.20;;;;;;;27.61;27.49;96246.50;5074580;27;20038;-33
2022/05/29 09:04:32;;;;;;;8.40;2.10;;;;;;;27.61;27.42;96249.13;5088314;27;20033;-33
2022/05/29 09:06:58;;;;;;;5.13;2.22;;;;;;;27.61;27.46;96250.94;5079933;27;20039;-33
2022/05/29 09:09:25;;;;;;;11.23;2.80;;;;;;;27.61;27.49;96246.50;5088285;27;20133;-34
2022/05/29 09:11:54;;;;;;;6.40;2.08;;;;;;;27.60;27.44;96244.78;5092744;27;20761;-32
2022/05/29 09:14:23;;;;;;;5.75;2.47;;;;;;;27.61;27.50;96262.28;5081534;27;21043;-36
2022/05/29 09:16:58;;;;;;;5.68;2.00;;;;;;;27.60;27.54;96247.41;5109115;27;20031;-33
2022/05/29 09:19:28;;;;;;;6.85;2.05;;;;;;;27.60;27.67;96247.41;5090638;27;20030;-32
2022/05/29 09:22:17;;;;;;;6.88;2.40;;;;;;;27.60;27.58;96252.69;5114306;27;20023;-33
2022/05/29 09:24:52;;;;;;;3.92;1.80;;;;;;;27.61;27.40;96248.31;5087045;27;20106;-36
2022/05/29 09:27:18;;;;;;;9.00;2.10;;;;;;;27.59;27.43;96248.38;5109721;27;20027;-32
2022/05/29 09:29:44;;;;;;;10.98;3.33;;;;;;;27.59;27.38;96252.78;5111963;27;20516;-31
2022/05/29 09:32:17;;;;;;;11.40;3.60;;;;;;;27.60;27.48;96250.03;5107435;27;20103;-32
2022/05/29 09:34:43;;;;;;;14.18;4.35;;;;;;;27.59;27.58;96251.00;5106596;27;21507;-33
2022/05/29 09:37:23;;;;;;;18.65;4.65;;;;;;;27.60;27.50;96255.31;5092386;27;20558;-32
2022/05/29 09:39:52;;;;;;;17.85;4.03;;;;;;;27.59;27.63;96253.63;5097239;27;20027;-37
2022/05/29 09:42:26;;;;;;;12.77;3.97;;;;;;;27.60;27.60;96252.69;5093458;27;20484;-32
2022/05/29 09:45:22;;;;;;;11.00;3.50;;;;;;;27.60;27.50;96249.19;5080059;27;22515;-32
2022/05/29 09:50:52;;;;;;;11.75;3.63;;;;;;;27.60;27.32;96255.31;5114680;27;20049;-31
2022/05/29 09:53:45;;;;;;;8.93;2.80;;;;;;;27.61;27.47;96257.03;5111193;27;20515;-30
2022/05/29 09:56:10;;;;;;;10.75;2.80;;;;;;;27.60;27.36;96255.31;5109801;27;20074;-32
2022/05/29 09:58:43;;;;;;;7.70;2.55;;;;;;;27.59;27.62;96258.91;5113465;27;20108;-32
2022/05/29 10:01:09;;;;;;;10.65;2.97;;;;;;;27.61;27.48;96257.03;5100643;27;20019;-31
2022/05/29 10:03:39;;;;;;;9.57;2.95;;;;;;;27.61;27.48;96256.19;5082676;27;20701;-32
2022/05/29 10:06:31;;;;;;;7.40;2.90;;;;;;;27.61;27.55;96257.03;5113101;27;20049;-32
2022/05/29 10:09:21;;;;;;;8.38;3.10;;;;;;;27.61;27.43;96262.28;5113355;27;20035;-33
2022/05/29 10:11:51;;;;;;;7.90;2.90;;;;;;;27.62;27.46;96255.25;5116113;27;20122;-30
2022/05/29 10:14:36;;;;;;;7.38;2.75;;;;;;;27.62;27.49;96258.69;5085467;27;20052;-32
2022/05/29 10:17:16;;;;;;;6.75;2.42;;;;;;;27.62;27.54;96263.13;5117522;27;20033;-35
2022/05/29 10:19:44;;;;;;;5.88;2.40;;;;;;;27.62;27.56;96263.97;5099030;27;20084;-31
2022/05/29 10:22:12;;;;;;;5.72;2.50;;;;;;;27.62;27.41;96258.69;5117059;27;20034;-29
2022/05/29 10:24:40;;;;;;;6.00;2.30;;;;;;;27.62;27.48;96263.13;5117121;27;20034;-32
2022/05/29 10:27:32;;;;;;;5.90;2.30;;;;;;;27.63;27.45;96265.66;5101286;27;20046;-33
2022/05/29 10:30:11;;;;;;;6.10;2.17;;;;;;;27.63;27.73;96259.56;5104907;27;20089;-37
2022/05/29 10:32:40;;;;;;;4.53;2.03;;;;;;;27.64;27.62;96261.22;5116237;27;20038;-32
2022/05/29 10:35:27;;;;;;;6.07;2.33;;;;;;;27.63;27.50;96255.13;5100782;27;20022;-33
2022/05/29 10:37:53;;;;;;;6.35;2.30;;;;;;;27.64;27.59;96262.09;5113578;27;20028;-32
2022/05/29 10:40:31;;;;;;;6.95;1.98;;;;;;;27.63;27.50;96263.03;5114998;27;20029;-34
2022/05/29 10:43:01;;;;;;;5.90;2.03;;;;;;;27.64;27.55;96264.72;5117347;27;20397;-31
2022/05/29 10:45:33;;;;;;;5.22;1.75;;;;;;;27.65;27.51;96263.75;5114601;27;20023;-31
2022/05/29 10:48:21;;;;;;;5.65;2.05;;;;;;;27.64;27.44;96264.72;5119321;27;20057;-31
2022/05/29 10:50:59;;;;;;;4.22;1.92;;;;;;;27.65;27.51;96262.94;5115927;27;20045;-31
2022/05/29 10:53:27;;;;;;;6.70;2.35;;;;;;;27.65;27.49;96261.13;5114725;27;20022;-33
2022/05/29 10:56:03;;;;;;;4.63;2.08;;;;;;;27.64;27.51;96256.81;5116965;27;20106;-30
2022/05/29 10:59:08;;;;;;;8.50;2.40;;;;;;;27.64;27.55;96251.56;5099609;27;20031;-33
2022/05/29 11:05:06;;;;;;;4.25;2.05;;;;;;;27.63;27.48;96244.63;5090631;27;20038;-32
2022/05/29 11:07:53;;;;;;;4.38;1.80;;;;;;;27.64;27.63;96242.81;5114459;27;20050;-34
2022/05/29 11:10:20;;;;;;;3.40;1.40;;;;;;;27.63;27.72;96239.34;5096282;27;20019;-31
2022/05/29 11:13:04;;;;;;;3.35;1.38;;;;;;;27.63;27.77;96233.22;5114934;27;20030;-33
2022/05/29 11:15:56;;;;;;;3.70;1.65;;;;;;;27.63;27.74;96235.88;5116137;27;20122;-33
2022/05/29 11:18:24;;;;;;;;;;;;;;;27.62;27.82;96226.28;5097988;27;20118;-32
2022/05/29 11:21:05;;;;;;;3.40;1.45;;;;;;;27.64;27.85;96221.75;5116312;27;19923;-31
2022/05/29 11:23:39;;;;;;;4.25;1.50;;;;;;;27.62;27.68;96215.75;5116894;27;20031;-32
2022/05/29 11:26:11;;;;;;;5.65;1.27;;;;;;;27.62;27.69;96219.22;5112914;27;20024;-32
2022/05/29 11:28:50;;;;;;;6.00;1.63;;;;;;;27.63;27.80;96220.91;5116644;27;20692;-31
2022/05/29 11:31:37;;;;;;;3.22;1.25;;;;;;;27.62;27.91;96224.47;5096495;27;20023;-32
2022/05/29 11:34:27;;;;;;;2.55;1.30;;;;;;;27.64;27.82;96219.13;5106256;27;20031;-30
2022/05/29 11:37:18;;;;;;;6.15;1.20;;;;;;;27.64;27.80;96211.22;5119859;27;20150;-35
2022/05/29 11:39:54;;;;;;;4.13;1.60;;;;;;;27.65;27.68;96210.28;5103885;27;20038;-33
2022/05/29 11:42:25;;;;;;;2.45;1.10;;;;;;;27.65;27.73;96205.84;5104598;27;20054;-32
2022/05/29 11:44:57;;;;;;;3.88;1.52;;;;;;;27.65;27.62;96199.75;5094135;27;20799;-31
2022/05/29 11:53:22;;;;;;;2.80;1.23;;;;;;;27.67;27.55;96189.09;5103702;27;20038;-29
2022/05/29 11:55:48;;;;;;;2.37;1.17;;;;;;;27.68;27.38;96188.16;5099455;27;20084;-33
2022/05/29 11:58:29;;;;;;;9.23;1.95;;;;;;;27.67;27.45;96176.78;5102157;27;20031;-34
2022/05/29 12:00:58;;;;;;;6.10;1.55;;;;;;;27.67;27.34;96182.06;5121538;27;20170;-31
2022/05/29 12:03:44;;;;;;;2.95;1.50;;;;;;;27.64;27.14;96183.13;5122399;27;20025;-32
2022/05/29 12:06:11;;;;;;;2.30;1.15;;;;;;;27.63;27.14;96181.44;5114160;27;20031;-32
2022/05/29 12:08:48;;;;;;;4.10;1.38;;;;;;;27.62;27.13;96174.47;5123143;27;20046;-31
2022/05/29 12:11:25;;;;;;;5.30;1.38;;;;;;;27.61;27.26;96178.06;5126778;27;20127;-31
2022/05/29 12:13:54;;;;;;;1.98;1.10;;;;;;;27.62;27.09;96174.47;5117683;27;20054;-32
2022/05/29 12:16:20;;;;;;;2.08;1.15;;;;;;;27.61;27.39;96172.78;5099307;27;20523;-35
2022/05/29 12:18:47;;;;;;;4.20;1.00;;;;;;;27.61;27.49;96162.28;5099087;27;20031;-32
2022/05/29 12:21:14;;;;;;;3.47;1.20;;;;;;;27.62;27.25;96166.56;5085984;27;20030;-31
2022/05/29 12:23:47;;;;;;;2.97;1.13;;;;;;;27.62;27.39;96163.94;5078255;27;20018;-30